Time;durP1;ratioP1;P1;durP2;ratioP2;P2;SDS_P1;SDS_P2;PMS_P1;PMS_P2;Temp;Humidity;BMP_temperature;BMP_pressure;BME280_temperature;BME280_humidity;BME280_pressure;Samples;Min_cycle;Max_cycle;Signal;HPM_P1;HPM_P2
2022/06/11 00:02:15;;;;;;;8.32;4.60;;;17.80;99.90;;;;;;4885628;29;20139;-77
2022/06/11 00:05:02;;;;;;;13.10;4.88;;;17.80;99.90;;;;;;4862336;29;20439;-78
2022/06/11 00:07:36;;;;;;;9.82;4.82;;;17.80;99.90;;;;;;4868236;29;20136;-78
2022/06/11 00:10:40;;;;;;;8.13;4.45;;;17.70;99.90;;;;;;4896865;29;20473;-78
2022/06/11 00:13:37;;;;;;;10.40;4.70;;;17.70;99.90;;;;;;4872500;29;20126;-78
2022/06/11 00:19:35;;;;;;;;;;;;;;;;;;;;;
2022/06/11 00:25:02;;;;;;;13.05;5.28;;;17.50;99.90;;;;;;4875606;29;20409;-78
2022/06/11 00:27:31;;;;;;;10.05;5.20;;;17.50;99.90;;;;;;4872510;29;20103;-78
2022/06/11 00:30:18;;;;;;;9.90;5.30;;;17.50;99.90;;;;;;4892029;29;20372;-79
2022/06/11 00:36:10;;;;;;;11.48;5.47;;;17.40;99.90;;;;;;4882184;29;20195;-78
2022/06/11 00:41:31;;;;;;;9.23;5.70;;;17.30;99.90;;;;;;4896186;29;20040;-78
2022/06/11 00:50:38;;;;;;;10.93;5.88;;;17.20;99.90;;;;;;4877368;29;20052;-78
2022/06/11 00:53:48;;;;;;;12.90;5.65;;;17.10;99.90;;;;;;4877816;29;21285;-79
2022/06/11 00:56:48;;;;;;;11.18;6.28;;;17.10;99.90;;;;;;4866392;29;20040;-78
2022/06/11 00:59:20;;;;;;;9.60;6.30;;;17.00;99.90;;;;;;4893471;29;20080;-78
2022/06/11 01:01:52;;;;;;;11.07;7.00;;;16.90;99.90;;;;;;4880054;29;20042;-78
2022/06/11 01:04:57;;;;;;;;;;;;;;;;;;;;;
2022/06/11 01:08:24;;;;;;;10.68;6.68;;;16.80;99.90;;;;;;4890046;29;20059;-78
2022/06/11 01:11:08;;;;;;;13.20;7.07;;;16.70;99.90;;;;;;4879254;29;20510;-78
2022/06/11 01:17:33;;;;;;;9.32;7.18;;;16.60;99.90;;;;;;4832602;29;20052;-78
2022/06/11 01:20:20;;;;;;;;;;;16.60;99.90;;;;;;4852935;29;20044;-78
2022/06/11 01:26:02;;;;;;;;;;;;;;;;;;;;;
2022/06/11 01:31:47;;;;;;;10.50;7.00;;;16.40;99.90;;;;;;4884548;29;20048;-79
2022/06/11 01:34:41;;;;;;;9.60;6.88;;;16.30;99.90;;;;;;4895576;29;20055;-78
2022/06/11 01:40:19;;;;;;;10.70;6.93;;;16.30;99.90;;;;;;4883899;29;20386;-78
2022/06/11 01:43:20;;;;;;;9.73;7.55;;;16.30;99.90;;;;;;4898693;29;20441;-78
2022/06/11 01:46:01;;;;;;;12.13;7.15;;;16.20;99.90;;;;;;4894432;29;20397;-78
2022/06/11 01:48:42;;;;;;;8.55;7.18;;;16.20;99.90;;;;;;4880973;29;20045;-79
2022/06/11 01:51:13;;;;;;;13.55;8.00;;;16.20;99.90;;;;;;4895282;29;20048;-78
2022/06/11 01:57:25;;;;;;;12.15;7.45;;;16.10;99.90;;;;;;4887993;29;20055;-78
2022/06/11 02:00:46;;;;;;;11.10;8.05;;;16.10;99.90;;;;;;4892117;29;20389;-78
2022/06/11 02:03:25;;;;;;;13.85;7.78;;;16.10;99.90;;;;;;4892354;29;20378;-78
2022/06/11 02:06:18;;;;;;;11.02;7.47;;;16.00;99.90;;;;;;4880817;29;20063;-78
2022/06/11 02:09:29;;;;;;;11.07;7.53;;;16.00;99.90;;;;;;4893899;29;20504;-78
2022/06/11 02:12:36;;;;;;;13.63;8.20;;;16.00;99.90;;;;;;4893884;29;20095;-78
2022/06/11 02:15:17;;;;;;;8.38;7.20;;;16.00;99.90;;;;;;4878258;29;20067;-78
2022/06/11 02:18:13;;;;;;;11.35;8.00;;;15.90;99.90;;;;;;4878271;29;20088;-78
2022/06/11 02:24:10;;;;;;;12.77;8.20;;;15.90;99.90;;;;;;4894245;29;20449;-78
2022/06/11 02:27:05;;;;;;;12.40;8.15;;;15.90;99.90;;;;;;4871039;29;20609;-78
2022/06/11 02:29:46;;;;;;;10.88;8.48;;;15.90;99.90;;;;;;4876965;29;20472;-77
2022/06/11 02:32:20;;;;;;;14.95;8.60;;;15.90;99.90;;;;;;4895820;29;20515;-78
2022/06/11 02:35:05;;;;;;;13.82;9.13;;;15.90;99.90;;;;;;4881680;29;20043;-78
2022/06/11 02:37:45;;;;;;;11.90;9.10;;;15.90;99.90;;;;;;4878561;29;20479;-78
2022/06/11 02:43:26;;;;;;;11.50;8.90;;;15.80;99.90;;;;;;4881000;29;20059;-78
2022/06/11 02:49:33;;;;;;;11.77;9.13;;;15.80;99.90;;;;;;4893853;29;20461;-79
2022/06/11 02:55:11;;;;;;;;;;;;;;;;;;;;;
2022/06/11 02:57:49;;;;;;;18.58;9.38;;;15.60;99.90;;;;;;4896028;29;20063;-78
2022/06/11 03:00:50;;;;;;;10.75;7.72;;;15.60;99.90;;;;;;4863416;29;20044;-78
2022/06/11 03:03:39;;;;;;;14.43;8.60;;;15.60;99.90;;;;;;4877057;29;20530;-77
2022/06/11 03:09:47;;;;;;;13.93;8.27;;;15.60;99.90;;;;;;4820840;29;20465;-78
2022/06/11 03:18:07;;;;;;;10.98;6.03;;;15.50;99.90;;;;;;4870748;29;21391;-78
2022/06/11 03:23:47;;;;;;;11.63;5.38;;;15.40;99.90;;;;;;4887974;29;20408;-78
2022/06/11 03:29:02;;;;;;;11.38;4.97;;;15.40;99.90;;;;;;4894257;29;20040;-78
2022/06/11 03:34:53;;;;;;;10.88;4.93;;;15.30;99.90;;;;;;4887436;29;20062;-78
2022/06/11 03:37:35;;;;;;;9.00;4.45;;;15.30;99.90;;;;;;4888748;29;20128;-78
2022/06/11 03:40:30;;;;;;;9.52;4.45;;;15.30;99.90;;;;;;4879657;29;21400;-78
2022/06/11 03:43:14;;;;;;;15.18;4.22;;;15.30;99.90;;;;;;4860620;29;20211;-78
2022/06/11 03:45:55;;;;;;;10.98;3.85;;;15.30;99.90;;;;;;4891870;29;20050;-78
2022/06/11 03:48:40;;;;;;;16.92;4.55;;;15.20;99.90;;;;;;4881861;29;20063;-78
2022/06/11 03:51:35;;;;;;;11.43;3.38;;;15.20;99.90;;;;;;4852413;29;20052;-78
2022/06/11 03:54:17;;;;;;;7.55;3.25;;;15.20;99.90;;;;;;4876840;29;20060;-78
2022/06/11 03:56:52;;;;;;;11.13;3.05;;;15.20;99.90;;;;;;4877570;29;20051;-78
2022/06/11 03:59:48;;;;;;;12.93;3.25;;;15.20;99.90;;;;;;4878710;29;20520;-78
2022/06/11 04:02:53;;;;;;;12.20;3.40;;;15.20;99.90;;;;;;4877325;29;20091;-78
2022/06/11 04:05:46;;;;;;;12.38;3.40;;;15.20;99.90;;;;;;4881257;29;20039;-78
2022/06/11 04:08:46;;;;;;;9.13;2.80;;;15.30;99.90;;;;;;4879182;29;20048;-78
2022/06/11 04:11:48;;;;;;;10.90;3.00;;;15.20;99.90;;;;;;4892891;29;20104;-78
2022/06/11 04:14:21;;;;;;;14.18;3.17;;;15.30;99.90;;;;;;4894368;29;20074;-78
2022/06/11 04:17:36;;;;;;;16.38;4.28;;;15.20;99.90;;;;;;4879431;29;20442;-78
2022/06/11 04:20:26;;;;;;;9.77;3.10;;;15.30;99.90;;;;;;4861514;29;20091;-78
2022/06/11 04:23:01;;;;;;;10.52;3.40;;;15.20;99.90;;;;;;4893759;29;20412;-78
2022/06/11 04:25:30;;;;;;;10.27;3.47;;;15.20;99.90;;;;;;4879216;29;20071;-79
2022/06/11 04:28:09;;;;;;;10.68;3.85;;;15.20;99.90;;;;;;4876243;29;20454;-78
2022/06/11 04:30:44;;;;;;;12.27;3.80;;;15.20;99.90;;;;;;4877785;29;21321;-77
2022/06/11 04:33:15;;;;;;;9.00;3.42;;;15.20;99.90;;;;;;4894475;29;20047;-78
2022/06/11 04:39:08;;;;;;;10.88;4.53;;;15.20;99.90;;;;;;4887935;29;20386;-78
2022/06/11 04:41:57;;;;;;;10.85;4.43;;;15.20;99.90;;;;;;4877851;29;20056;-78
2022/06/11 04:45:12;;;;;;;12.05;4.32;;;15.30;99.90;;;;;;4880030;29;20084;-78
2022/06/11 04:47:51;;;;;;;10.43;4.50;;;15.30;99.90;;;;;;4893491;29;20036;-78
2022/06/11 04:50:21;;;;;;;12.07;4.82;;;15.30;99.90;;;;;;4879284;29;20082;-78
2022/06/11 04:53:01;;;;;;;8.15;4.05;;;15.30;99.90;;;;;;4862529;29;20568;-78
2022/06/11 04:55:40;;;;;;;10.35;4.40;;;15.30;99.90;;;;;;4862828;29;20556;-78
2022/06/11 04:58:22;;;;;;;10.82;4.47;;;15.30;99.90;;;;;;4864378;29;20139;-78
2022/06/11 05:00:54;;;;;;;12.27;4.85;;;15.30;99.90;;;;;;4896898;29;20477;-79
2022/06/11 05:03:40;;;;;;;9.90;4.20;;;15.40;99.90;;;;;;4881730;29;20573;-78
2022/06/11 05:06:31;;;;;;;9.30;4.82;;;15.40;99.90;;;;;;4896169;29;20083;-79
2022/06/11 05:09:00;;;;;;;13.27;4.43;;;15.40;99.90;;;;;;4881595;29;20461;-78
2022/06/11 05:11:54;;;;;;;9.52;4.50;;;15.40;99.90;;;;;;4866487;29;20058;-78
2022/06/11 05:14:24;;;;;;;8.82;4.43;;;15.50;99.90;;;;;;4880601;29;20564;-78
2022/06/11 05:17:06;;;;;;;8.45;4.35;;;15.50;99.90;;;;;;4896388;29;20045;-78
2022/06/11 05:25:49;;;;;;;13.13;4.65;;;15.60;99.90;;;;;;4837782;29;20672;-79
2022/06/11 05:31:41;;;;;;;11.50;4.32;;;15.70;99.90;;;;;;4821184;29;20677;-79
2022/06/11 05:34:12;;;;;;;9.77;4.05;;;15.70;99.90;;;;;;4830711;29;21543;-78
2022/06/11 05:36:44;;;;;;;10.40;4.15;;;15.70;99.90;;;;;;4850110;29;20155;-78
2022/06/11 05:39:12;;;;;;;8.68;4.40;;;15.80;99.90;;;;;;4883050;29;20549;-78
2022/06/11 05:41:51;;;;;;;13.27;4.55;;;15.80;99.90;;;;;;4881395;29;20051;-78
2022/06/11 05:44:31;;;;;;;14.60;4.35;;;15.80;99.90;;;;;;4882755;29;20373;-78
2022/06/11 05:47:15;;;;;;;13.20;3.97;;;15.90;99.90;;;;;;4872710;29;20409;-78
2022/06/11 05:55:58;;;;;;;13.82;3.92;;;16.10;99.90;;;;;;4889534;29;20383;-79
2022/06/11 05:58:47;;;;;;;16.05;4.10;;;16.10;99.90;;;;;;4880749;29;20574;-79
2022/06/11 06:01:38;;;;;;;18.85;5.18;;;16.10;99.90;;;;;;4893167;29;20075;-78
2022/06/11 06:04:21;;;;;;;15.93;4.45;;;16.20;99.90;;;;;;4881263;29;20063;-78
2022/06/11 06:06:59;;;;;;;15.90;4.32;;;16.20;99.90;;;;;;4880277;29;20051;-79
2022/06/11 06:09:40;;;;;;;15.30;4.10;;;16.30;99.90;;;;;;4898142;29;20055;-79
2022/06/11 06:12:30;;;;;;;13.77;3.95;;;16.30;99.90;;;;;;4896099;29;20508;-79
2022/06/11 06:15:09;;;;;;;15.80;4.18;;;16.30;99.90;;;;;;4858813;29;20051;-79
2022/06/11 06:17:55;;;;;;;14.27;4.65;;;16.40;99.90;;;;;;4879786;29;20506;-78
2022/06/11 06:20:40;;;;;;;14.52;4.38;;;16.50;99.90;;;;;;4893902;29;20501;-78
2022/06/11 06:23:16;;;;;;;17.88;4.65;;;16.60;99.90;;;;;;4866559;29;20044;-80
2022/06/11 06:25:51;;;;;;;;;;;;;;;;;;;;;
2022/06/11 06:28:20;;;;;;;18.47;4.47;;;16.80;99.90;;;;;;4895319;29;19978;-78
2022/06/11 06:31:47;;;;;;;20.83;4.55;;;16.90;99.90;;;;;;4879919;29;20857;-79
2022/06/11 06:34:01;;;;;;;19.10;4.38;;;17.00;99.90;;;;;;4885640;29;20044;-79
2022/06/11 06:39:36;;;;;;;13.50;4.40;;;17.30;99.90;;;;;;4866613;29;20112;-80
2022/06/11 06:42:06;;;;;;;19.73;4.40;;;17.40;99.90;;;;;;4877907;29;20055;-80
2022/06/11 06:47:23;;;;;;;20.25;4.28;;;17.60;99.90;;;;;;4896724;29;20455;-78
2022/06/11 06:49:59;;;;;;;14.30;3.80;;;17.70;99.90;;;;;;4852907;29;20533;-78
2022/06/11 06:52:35;;;;;;;21.02;4.35;;;17.80;99.90;;;;;;4879593;29;20494;-79
2022/06/11 06:55:08;;;;;;;18.35;4.45;;;18.00;99.90;;;;;;4880837;29;20524;-78
2022/06/11 06:57:34;;;;;;;18.45;4.28;;;18.10;99.90;;;;;;4880986;29;20547;-78
2022/06/11 07:00:04;;;;;;;27.58;4.65;;;18.10;99.90;;;;;;4882045;29;20131;-79
2022/06/11 07:02:44;;;;;;;19.33;4.65;;;18.10;99.90;;;;;;4879220;29;20052;-79
2022/06/11 07:05:16;;;;;;;15.75;4.55;;;18.20;99.90;;;;;;4879842;29;20048;-79
2022/06/11 07:07:58;;;;;;;22.75;4.60;;;18.30;99.90;;;;;;4879301;29;20059;-77
2022/06/11 07:10:26;;;;;;;21.98;4.88;;;18.40;99.90;;;;;;4895178;29;20060;-78
2022/06/11 07:12:57;;;;;;;17.45;4.55;;;18.50;99.90;;;;;;4877130;29;20052;-78
2022/06/11 07:15:52;;;;;;;21.77;4.43;;;18.50;99.90;;;;;;4876606;29;20418;-79
2022/06/11 07:21:52;;;;;;;16.95;4.40;;;18.70;99.90;;;;;;4873054;29;20044;-78
2022/06/11 07:24:35;;;;;;;18.98;4.10;;;18.80;99.90;;;;;;4884591;29;20040;-80
2022/06/11 07:27:09;;;;;;;16.08;3.63;;;18.80;99.90;;;;;;4890495;29;20041;-79
2022/06/11 07:29:41;;;;;;;;;;;19.00;99.90;;;;;;4869366;29;20084;-78
2022/06/11 07:35:20;;;;;;;21.90;5.18;;;19.20;99.90;;;;;;4878847;29;20350;-79
2022/06/11 07:37:54;;;;;;;19.08;5.03;;;19.50;99.90;;;;;;4858715;29;20037;-78
2022/06/11 07:40:36;;;;;;;14.15;3.70;;;19.80;99.90;;;;;;4860492;29;20063;-79
2022/06/11 07:43:11;;;;;;;21.35;5.13;;;20.00;99.90;;;;;;4857384;29;20481;-79
2022/06/11 07:45:40;;;;;;;15.45;4.38;;;20.30;99.90;;;;;;4878012;29;20465;-78
2022/06/11 07:51:33;;;;;;;15.93;4.20;;;20.80;99.90;;;;;;4886222;29;20044;-79
2022/06/11 07:54:18;;;;;;;20.63;4.93;;;20.90;99.90;;;;;;4880031;29;20037;-79
2022/06/11 08:03:38;;;;;;;20.92;4.97;;;21.30;99.90;;;;;;4880158;29;20976;-80
2022/06/11 08:05:50;;;;;;;15.15;3.88;;;21.60;99.90;;;;;;4891070;29;20130;-79
2022/06/11 08:08:26;;;;;;;18.55;4.40;;;21.60;99.90;;;;;;4875089;29;20088;-79
2022/06/11 08:11:00;;;;;;;19.33;4.38;;;21.60;99.90;;;;;;4874040;29;20512;-79
2022/06/11 08:16:51;;;;;;;15.18;3.85;;;21.80;99.90;;;;;;4841801;29;20519;-79
2022/06/11 08:22:46;;;;;;;15.18;3.92;;;22.00;99.90;;;;;;4887046;29;20088;-79
2022/06/11 08:28:52;;;;;;;19.95;4.47;;;21.90;99.90;;;;;;4892473;29;20574;-79
2022/06/11 08:41:19;;;;;;;17.85;4.22;;;22.00;99.90;;;;;;4893208;29;20505;-79
2022/06/11 08:44:19;;;;;;;16.33;4.30;;;22.20;99.90;;;;;;4889264;29;20103;-79
2022/06/11 08:47:16;;;;;;;13.88;4.07;;;22.30;99.90;;;;;;4852371;29;20485;-79
2022/06/11 08:50:09;;;;;;;22.30;4.22;;;22.40;99.90;;;;;;4895962;29;20040;-80
2022/06/11 08:55:55;;;;;;;15.50;3.72;;;22.60;99.90;;;;;;4883606;29;20036;-80
2022/06/11 08:58:34;;;;;;;15.70;3.88;;;22.70;99.90;;;;;;4867312;29;20040;-79
2022/06/11 09:01:25;;;;;;;18.52;4.97;;;22.90;99.90;;;;;;4877635;29;20545;-80
2022/06/11 09:04:44;;;;;;;16.70;4.03;;;23.00;99.90;;;;;;4877592;29;20054;-80
2022/06/11 09:07:55;;;;;;;17.45;3.53;;;22.90;99.90;;;;;;4879202;29;20382;-78
2022/06/11 09:11:23;;;;;;;13.20;4.00;;;22.90;99.90;;;;;;4880157;29;20103;-79
2022/06/11 09:14:10;;;;;;;13.88;4.00;;;22.80;99.90;;;;;;4861494;29;20504;-80
2022/06/11 09:17:36;;;;;;;12.38;3.35;;;22.90;99.90;;;;;;4854341;29;20383;-79
2022/06/11 09:33:37;;;;;;;11.75;3.38;;;23.60;96.30;;;;;;4855856;29;20067;-80
2022/06/11 09:49:39;;;;;;;12.52;3.05;;;23.60;97.10;;;;;;4871663;29;20592;-80
2022/06/11 09:52:24;;;;;;;11.63;2.85;;;23.60;93.70;;;;;;4858693;29;20044;-80
2022/06/11 09:55:53;;;;;;;10.30;2.90;;;23.40;94.60;;;;;;4865692;29;20061;-80
2022/06/11 10:01:39;;;;;;;10.68;3.10;;;23.30;92.10;;;;;;4862691;29;20046;-79
2022/06/11 10:10:06;;;;;;;10.18;3.35;;;23.30;94.10;;;;;;4861919;29;20498;-79
2022/06/11 10:13:00;;;;;;;14.00;3.22;;;23.50;94.50;;;;;;4882427;29;20129;-80
2022/06/11 10:15:39;;;;;;;15.10;2.92;;;23.50;91.30;;;;;;4889117;29;20036;-80
2022/06/11 10:18:14;;;;;;;12.02;3.13;;;23.40;91.10;;;;;;4912247;29;20060;-80
2022/06/11 10:24:39;;;;;;;15.27;3.03;;;22.80;90.70;;;;;;4886503;29;20041;-79
2022/06/11 10:27:47;;;;;;;13.15;3.15;;;22.60;90.30;;;;;;4790862;29;20055;-79
2022/06/11 10:30:29;;;;;;;9.30;2.75;;;22.50;90.10;;;;;;4824920;29;20264;-79
2022/06/11 10:36:04;;;;;;;10.43;2.60;;;22.30;91.00;;;;;;4866181;29;20603;-79
2022/06/11 10:38:51;;;;;;;11.25;2.65;;;22.30;90.40;;;;;;4876850;29;20081;-79
2022/06/11 10:41:23;;;;;;;11.20;3.20;;;22.10;91.10;;;;;;4858374;29;20520;-79
2022/06/11 10:44:24;;;;;;;9.45;2.72;;;22.00;90.70;;;;;;4853404;29;20079;-80
2022/06/11 10:50:40;;;;;;;14.55;2.60;;;22.00;90.90;;;;;;4891402;29;20055;-79
2022/06/11 10:53:53;;;;;;;9.30;2.60;;;22.00;91.90;;;;;;4852703;29;20049;-79
2022/06/11 10:57:09;;;;;;;14.77;3.30;;;22.10;92.60;;;;;;4878206;29;20388;-79
2022/06/11 11:03:07;;;;;;;12.43;3.40;;;22.20;90.40;;;;;;4899452;29;20052;-79
2022/06/11 11:09:16;;;;;;;;;;;22.40;91.20;;;;;;4910752;29;20036;-79
2022/06/11 11:15:03;;;;;;;12.10;3.65;;;22.70;92.40;;;;;;4906375;29;20056;-80
2022/06/11 11:17:36;;;;;;;14.00;2.90;;;22.80;90.80;;;;;;4905666;29;20501;-79
2022/06/11 11:23:54;;;;;;;11.43;2.97;;;22.80;90.80;;;;;;4894426;29;20051;-79
2022/06/11 11:27:09;;;;;;;12.20;3.03;;;22.70;90.80;;;;;;4879702;29;20056;-79
2022/06/11 11:29:51;;;;;;;13.10;4.15;;;22.70;90.30;;;;;;4889094;29;20044;-79
2022/06/11 11:32:53;;;;;;;10.13;2.83;;;22.60;90.50;;;;;;4893498;29;20204;-79
2022/06/11 11:35:50;;;;;;;14.25;2.78;;;22.50;90.40;;;;;;4890801;29;20067;-80
2022/06/11 11:38:43;;;;;;;13.40;3.75;;;22.50;90.60;;;;;;4892972;29;20052;-80
2022/06/11 11:41:47;;;;;;;9.32;3.10;;;22.70;91.30;;;;;;4908382;29;20036;-79
2022/06/11 11:45:03;;;;;;;11.45;3.20;;;22.80;90.50;;;;;;4871512;29;20544;-79
2022/06/11 11:56:58;;;;;;;12.00;3.17;;;23.30;89.80;;;;;;4909306;29;20036;-80
2022/06/11 12:03:00;;;;;;;10.40;2.83;;;23.50;90.90;;;;;;4897187;29;20484;-78
2022/06/11 12:15:28;;;;;;;10.68;3.22;;;23.30;90.00;;;;;;4881713;29;20459;-79
2022/06/11 12:18:29;;;;;;;12.95;3.33;;;23.40;88.20;;;;;;4888852;29;20072;-79
2022/06/11 12:21:40;;;;;;;11.73;3.03;;;23.60;90.00;;;;;;4873930;29;20063;-79
2022/06/11 12:24:54;;;;;;;11.70;2.80;;;23.70;87.10;;;;;;4868135;29;20037;-80
2022/06/11 12:27:40;;;;;;;8.27;2.75;;;23.80;90.00;;;;;;4896338;29;20501;-80
2022/06/11 12:30:50;;;;;;;11.63;3.80;;;24.20;89.40;;;;;;4885174;29;20051;-81
2022/06/11 12:44:06;;;;;;;13.15;3.45;;;25.40;85.70;;;;;;4794122;29;20090;-81
2022/06/11 12:57:17;;;;;;;9.13;2.92;;;26.70;81.90;;;;;;4743182;30;20146;-83
2022/06/11 13:00:40;;;;;;;13.05;3.60;;;26.90;82.80;;;;;;4744688;30;20052;-82
2022/06/11 13:03:30;;;;;;;11.85;3.50;;;27.30;78.90;;;;;;4753446;30;20131;-83
2022/06/11 13:06:39;;;;;;;13.70;3.72;;;27.50;77.10;;;;;;4787604;29;20049;-83
2022/06/11 13:09:37;;;;;;;12.43;3.42;;;27.60;78.10;;;;;;4805449;29;20085;-82
2022/06/11 13:12:22;;;;;;;15.18;3.55;;;27.80;78.50;;;;;;4789660;29;20125;-82
2022/06/11 13:15:38;;;;;;;13.40;3.38;;;27.80;78.40;;;;;;4804478;29;20054;-81
2022/06/11 13:18:28;;;;;;;12.67;3.50;;;27.80;76.90;;;;;;4805342;29;20050;-81
2022/06/11 13:21:04;;;;;;;12.45;3.22;;;27.80;76.50;;;;;;4820092;29;20349;-82
2022/06/11 13:23:42;;;;;;;12.60;3.72;;;27.80;77.80;;;;;;4821612;29;20041;-82
2022/06/11 13:26:18;;;;;;;12.80;3.42;;;27.70;76.80;;;;;;4847044;29;20034;-85
2022/06/11 13:29:19;;;;;;;11.70;3.45;;;27.80;76.30;;;;;;4859372;29;20053;-85
2022/06/11 13:32:12;;;;;;;10.45;2.78;;;28.00;76.90;;;;;;4819853;29;20057;-85
2022/06/11 13:34:58;;;;;;;9.57;2.83;;;28.20;73.70;;;;;;4846282;29;20052;-85
2022/06/11 13:37:44;;;;;;;12.52;3.45;;;28.40;75.00;;;;;;4832204;29;20045;-85
2022/06/11 13:40:42;;;;;;;12.82;3.45;;;28.50;73.70;;;;;;4863235;29;20041;-85
2022/06/11 13:43:11;;;;;;;12.57;3.80;;;28.70;71.40;;;;;;4830966;29;20136;-85
2022/06/11 13:45:42;;;;;;;18.20;4.00;;;28.60;72.10;;;;;;4848083;29;20616;-85
2022/06/11 13:48:14;;;;;;;9.60;3.00;;;28.50;72.50;;;;;;4901166;29;20068;-84
2022/06/11 13:51:03;;;;;;;12.60;3.47;;;28.60;72.00;;;;;;4882690;29;20054;-85
2022/06/11 13:56:26;;;;;;;11.05;3.08;;;28.60;71.00;;;;;;4894060;29;20500;-85
2022/06/11 13:59:18;;;;;;;10.25;3.38;;;28.50;70.00;;;;;;4890834;29;20040;-84
2022/06/11 14:01:49;;;;;;;10.77;2.95;;;28.40;71.20;;;;;;4896280;29;20059;-85
2022/06/11 14:04:31;;;;;;;9.40;2.90;;;28.40;70.30;;;;;;4898216;29;20060;-85
2022/06/11 14:07:01;;;;;;;13.70;3.55;;;28.50;70.70;;;;;;4880581;29;20068;-84
2022/06/11 14:12:46;;;;;;;12.05;4.15;;;28.70;70.80;;;;;;4895624;29;20049;-85
2022/06/11 14:15:27;;;;;;;10.60;3.47;;;28.80;70.00;;;;;;4897509;29;20090;-84
2022/06/11 14:18:05;;;;;;;16.42;3.50;;;28.90;69.60;;;;;;4896813;29;20504;-84
2022/06/11 14:20:31;;;;;;;13.50;3.25;;;29.10;70.40;;;;;;4897117;29;20077;-84
2022/06/11 14:23:02;;;;;;;12.48;3.58;;;29.20;70.20;;;;;;4897134;29;20446;-84
2022/06/11 14:25:49;;;;;;;12.07;3.50;;;29.20;69.40;;;;;;4895096;29;20064;-85
2022/06/11 14:28:15;;;;;;;11.63;3.13;;;29.30;68.80;;;;;;4880479;29;20037;-84
2022/06/11 14:30:49;;;;;;;12.07;3.00;;;29.20;67.40;;;;;;4894930;29;20052;-84
2022/06/11 14:33:18;;;;;;;12.32;3.47;;;29.30;68.10;;;;;;4878340;29;20083;-84
2022/06/11 14:35:50;;;;;;;13.90;3.58;;;29.30;67.80;;;;;;4894638;29;20044;-84
2022/06/11 14:38:41;;;;;;;11.70;3.35;;;29.40;67.70;;;;;;4879869;29;20182;-85
2022/06/11 14:41:09;;;;;;;11.73;2.80;;;29.40;68.50;;;;;;4881034;29;20507;-83
2022/06/11 14:43:50;;;;;;;10.57;3.25;;;29.40;67.60;;;;;;4879005;29;20488;-84
2022/06/11 14:46:36;;;;;;;11.20;3.58;;;29.60;66.20;;;;;;4895519;29;20437;-84
2022/06/11 14:49:22;;;;;;;13.10;3.30;;;29.70;65.70;;;;;;4902158;29;20051;-84
2022/06/11 14:52:15;;;;;;;10.38;3.30;;;29.60;66.00;;;;;;4878471;29;20048;-84
2022/06/11 14:55:19;;;;;;;10.57;3.35;;;29.40;65.80;;;;;;4876485;29;20111;-84
2022/06/11 14:58:05;;;;;;;10.57;2.70;;;29.00;66.70;;;;;;4882409;29;20048;-83
2022/06/11 15:00:36;;;;;;;10.13;3.05;;;28.60;67.00;;;;;;4893695;29;20052;-84
2022/06/11 15:03:31;;;;;;;15.02;3.00;;;28.20;67.70;;;;;;4880975;29;20162;-84
2022/06/11 15:06:22;;;;;;;12.30;3.05;;;28.10;67.80;;;;;;4896502;29;20044;-84
2022/06/11 15:09:07;;;;;;;11.18;2.83;;;28.20;67.50;;;;;;4895091;29;20040;-84
2022/06/11 15:11:38;;;;;;;19.13;3.53;;;28.10;67.40;;;;;;4898277;29;20511;-84
2022/06/11 15:14:13;;;;;;;11.68;3.65;;;27.80;68.10;;;;;;4879567;29;20504;-84
2022/06/11 15:16:44;;;;;;;11.95;2.72;;;27.60;67.40;;;;;;4897530;29;20071;-85
2022/06/11 15:19:14;;;;;;;13.57;3.30;;;28.00;68.80;;;;;;4894881;29;20127;-83
2022/06/11 15:21:54;;;;;;;13.10;3.40;;;28.60;66.90;;;;;;4881339;29;20060;-85
2022/06/11 15:24:44;;;;;;;13.50;3.55;;;28.90;66.60;;;;;;4896552;29;20103;-84
2022/06/11 15:27:11;;;;;;;13.35;3.35;;;28.70;66.70;;;;;;4896256;29;20416;-85
2022/06/11 15:29:37;;;;;;;13.02;4.53;;;28.70;66.80;;;;;;4881553;29;20048;-85
2022/06/11 15:32:11;;;;;;;14.32;3.63;;;28.40;66.10;;;;;;4882549;29;21464;-84
2022/06/11 15:34:54;;;;;;;13.30;3.65;;;28.10;67.20;;;;;;4880707;29;20388;-84
2022/06/11 15:37:19;;;;;;;10.80;3.10;;;28.00;66.40;;;;;;4879809;29;20100;-84
2022/06/11 15:39:54;;;;;;;16.90;3.95;;;28.40;66.50;;;;;;4878433;29;20040;-84
2022/06/11 15:42:31;;;;;;;14.23;3.33;;;29.00;65.90;;;;;;4878855;29;20040;-84
2022/06/11 15:44:58;;;;;;;11.52;3.90;;;29.50;65.40;;;;;;4879740;29;20054;-84
2022/06/11 15:47:31;;;;;;;10.57;3.10;;;29.70;64.80;;;;;;4863596;29;20111;-84
2022/06/11 15:50:03;;;;;;;11.82;3.03;;;30.00;65.00;;;;;;4878057;29;20052;-79
2022/06/11 15:52:50;;;;;;;12.10;3.35;;;30.50;64.30;;;;;;4894578;29;20040;-79
2022/06/11 15:55:22;;;;;;;16.48;3.47;;;30.80;62.80;;;;;;4894232;29;20036;-79
2022/06/11 15:57:57;;;;;;;18.92;3.75;;;30.90;63.10;;;;;;4880689;29;20107;-78
2022/06/11 16:00:35;;;;;;;14.18;4.07;;;31.10;62.90;;;;;;4897258;29;20044;-78
2022/06/11 16:03:38;;;;;;;11.93;3.80;;;31.50;63.30;;;;;;4897541;29;20223;-78
2022/06/11 16:06:09;;;;;;;11.00;3.40;;;31.60;61.90;;;;;;4868310;29;20044;-78
2022/06/11 16:08:45;;;;;;;13.85;3.95;;;31.30;62.40;;;;;;4897486;29;20139;-78
2022/06/11 16:11:17;;;;;;;14.77;4.20;;;31.10;63.50;;;;;;4878648;29;20036;-79
2022/06/11 16:13:48;;;;;;;13.30;3.65;;;31.10;63.60;;;;;;4879067;29;20212;-78
2022/06/11 16:16:46;;;;;;;15.65;4.13;;;31.10;63.50;;;;;;4897233;29;20122;-85
2022/06/11 16:19:16;;;;;;;13.13;3.70;;;31.10;63.50;;;;;;4891048;29;20505;-84
2022/06/11 16:21:51;;;;;;;13.82;3.88;;;31.00;63.70;;;;;;4894469;29;20111;-84
2022/06/11 16:24:19;;;;;;;16.20;4.40;;;31.00;64.20;;;;;;4880922;29;20039;-84
2022/06/11 16:26:45;;;;;;;10.00;3.05;;;31.20;63.20;;;;;;4879585;29;20044;-84
2022/06/11 16:29:14;;;;;;;17.13;3.47;;;31.30;62.60;;;;;;4878223;29;20055;-84
2022/06/11 16:31:40;;;;;;;12.52;3.70;;;31.30;62.10;;;;;;4873914;29;20050;-85
2022/06/11 16:34:11;;;;;;;14.48;2.97;;;31.10;61.70;;;;;;4880311;29;20044;-78
2022/06/11 16:36:37;;;;;;;10.90;3.33;;;31.00;61.30;;;;;;4866984;29;20043;-79
2022/06/11 16:39:06;;;;;;;9.35;3.28;;;30.40;61.80;;;;;;4848965;29;20041;-79
2022/06/11 16:44:34;;;;;;;9.30;2.78;;;28.70;63.00;;;;;;4895180;29;20458;-78
2022/06/11 16:47:12;;;;;;;12.25;3.50;;;28.00;63.20;;;;;;4878717;29;20044;-86
2022/06/11 16:58:00;;;;;;;10.43;3.00;;;26.50;66.30;;;;;;4902612;29;20052;-85
2022/06/11 17:00:31;;;;;;;11.60;3.00;;;26.10;66.60;;;;;;4887876;29;20047;-85
2022/06/11 17:03:06;;;;;;;9.32;2.72;;;25.80;67.00;;;;;;4916320;29;20047;-85
2022/06/11 17:05:53;;;;;;;9.98;2.97;;;25.50;67.40;;;;;;4886330;29;20151;-84
2022/06/11 17:08:21;;;;;;;8.48;2.40;;;25.20;67.40;;;;;;4897150;29;20119;-84
2022/06/11 17:11:02;;;;;;;16.00;4.25;;;25.10;67.60;;;;;;4900243;29;20051;-84
2022/06/11 17:13:31;;;;;;;14.02;3.70;;;25.10;67.60;;;;;;4899271;29;20062;-85
2022/06/11 17:16:17;;;;;;;11.80;3.08;;;24.90;67.90;;;;;;4881287;29;20063;-78
2022/06/11 17:18:54;;;;;;;10.38;2.53;;;24.70;68.10;;;;;;4895934;29;20139;-78
2022/06/11 17:21:31;;;;;;;12.13;2.95;;;24.40;68.20;;;;;;4897694;29;20048;-78
2022/06/11 17:24:21;;;;;;;15.20;2.80;;;24.30;68.50;;;;;;4882502;29;20047;-78
2022/06/11 17:26:56;;;;;;;8.80;2.60;;;24.10;68.80;;;;;;4866559;29;20060;-78
2022/06/11 17:29:23;;;;;;;13.95;2.90;;;24.00;69.40;;;;;;4881445;29;21614;-78
2022/06/11 17:31:51;;;;;;;11.13;2.63;;;23.90;69.00;;;;;;4867381;29;20044;-85
2022/06/11 17:34:18;;;;;;;11.68;2.45;;;23.80;69.60;;;;;;4863639;29;20059;-85
2022/06/11 17:36:47;;;;;;;14.68;3.78;;;23.60;70.40;;;;;;4867437;29;20153;-86
2022/06/11 17:39:14;;;;;;;11.88;2.70;;;23.50;70.90;;;;;;4882460;29;20046;-84
2022/06/11 17:41:41;;;;;;;10.93;2.67;;;23.40;70.90;;;;;;4880390;29;20036;-85
2022/06/11 17:44:32;;;;;;;12.80;3.15;;;23.40;70.90;;;;;;4880548;29;20068;-84
2022/06/11 17:47:02;;;;;;;11.13;3.08;;;23.40;72.30;;;;;;4880542;29;20036;-84
2022/06/11 17:49:30;;;;;;;12.52;3.17;;;23.40;72.10;;;;;;4897000;29;20118;-85
2022/06/11 17:52:00;;;;;;;11.73;3.55;;;23.40;72.00;;;;;;4881752;29;20540;-85
2022/06/11 17:54:30;;;;;;;12.50;3.33;;;23.40;72.20;;;;;;4897867;29;20417;-78
2022/06/11 17:56:56;;;;;;;8.90;2.58;;;23.30;72.00;;;;;;4882500;29;20096;-78
2022/06/11 17:59:23;;;;;;;12.93;2.55;;;23.20;72.20;;;;;;4881000;29;20044;-78
2022/06/11 18:01:50;;;;;;;11.55;2.90;;;23.20;72.40;;;;;;4864301;29;20071;-78
2022/06/11 18:04:46;;;;;;;9.57;2.42;;;23.10;72.60;;;;;;4895289;29;21031;-78
2022/06/11 18:07:11;;;;;;;9.48;2.60;;;23.10;72.20;;;;;;4867334;29;20119;-78
2022/06/11 18:09:39;;;;;;;9.38;2.40;;;23.00;71.80;;;;;;4879009;29;20175;-78
2022/06/11 18:12:06;;;;;;;8.57;2.28;;;22.90;71.60;;;;;;4881801;29;20032;-78
2022/06/11 18:14:31;;;;;;;7.95;2.10;;;22.80;71.30;;;;;;4878407;29;20064;-78